Time;durP1;ratioP1;P1;durP2;ratioP2;P2;SDS_P1;SDS_P2;PMS_P1;PMS_P2;Temp;Humidity;BMP_temperature;BMP_pressure;BME280_temperature;BME280_humidity;BME280_pressure;Samples;Min_cycle;Max_cycle;Signal;HPM_P1;HPM_P2
2021/11/07 00:00:56;;;;;;;3.90;1.80;;;13.30;99.90;;;;;;5032279;28;20592;-75
2021/11/07 00:03:34;;;;;;;3.23;1.87;;;13.30;99.90;;;;;;5033022;28;20640;-75
2021/11/07 00:06:10;;;;;;;2.27;1.43;;;13.30;99.90;;;;;;5023693;28;20603;-75
2021/11/07 00:08:43;;;;;;;2.80;1.60;;;13.40;99.90;;;;;;5030576;28;20722;-76
2021/11/07 00:13:49;;;;;;;3.20;1.23;;;13.30;99.90;;;;;;5013133;28;20981;-75
2021/11/07 00:16:22;;;;;;;2.10;1.00;;;13.40;99.90;;;;;;5010935;28;20584;-75
2021/11/07 00:19:00;;;;;;;2.40;1.23;;;13.40;99.90;;;;;;5031988;28;20603;-75
2021/11/07 00:21:28;;;;;;;1.95;1.27;;;13.30;99.90;;;;;;5032920;28;20592;-75
2021/11/07 00:24:04;;;;;;;1.60;1.00;;;13.40;99.90;;;;;;5033460;28;20209;-76
2021/11/07 00:26:44;;;;;;;2.43;1.00;;;13.40;99.90;;;;;;5027515;28;20624;-75
2021/11/07 00:29:15;;;;;;;3.58;1.00;;;13.40;99.90;;;;;;4995252;28;21140;-75
2021/11/07 00:39:28;;;;;;;2.60;0.80;;;13.40;99.90;;;;;;5013209;28;20573;-75
2021/11/07 00:42:11;;;;;;;1.70;1.00;;;13.40;99.90;;;;;;5012843;28;20178;-76
2021/11/07 00:47:31;;;;;;;1.67;0.90;;;13.40;99.90;;;;;;4994646;28;21056;-75
2021/11/07 00:50:01;;;;;;;3.50;0.80;;;13.50;99.90;;;;;;5013288;28;20998;-75
2021/11/07 00:52:38;;;;;;;1.77;1.10;;;13.40;99.90;;;;;;5011349;28;21189;-75
2021/11/07 00:55:20;;;;;;;2.10;0.87;;;13.40;99.90;;;;;;4995813;28;20585;-75
2021/11/07 00:57:56;;;;;;;4.20;1.10;;;13.40;99.90;;;;;;5013203;28;20573;-75
2021/11/07 01:02:59;;;;;;;3.03;1.00;;;13.50;99.90;;;;;;5015466;28;20637;-75
2021/11/07 01:05:27;;;;;;;2.40;0.70;;;13.50;99.90;;;;;;5012905;28;20580;-75
2021/11/07 01:07:54;;;;;;;2.63;1.10;;;13.50;99.90;;;;;;5011691;28;20170;-74
2021/11/07 01:10:21;;;;;;;3.13;1.00;;;13.50;99.90;;;;;;5011789;28;20534;-74
2021/11/07 01:12:47;;;;;;;1.40;0.80;;;13.50;99.90;;;;;;5011439;28;20599;-74
2021/11/07 01:15:13;;;;;;;3.40;0.90;;;13.60;99.90;;;;;;5011688;28;20573;-74
2021/11/07 01:17:40;;;;;;;1.98;0.73;;;13.60;99.90;;;;;;5011371;28;20182;-74
2021/11/07 01:20:08;;;;;;;2.53;0.80;;;13.60;99.90;;;;;;5011724;28;20166;-74
2021/11/07 01:22:53;;;;;;;1.40;0.80;;;13.60;99.90;;;;;;5010997;28;20640;-74
2021/11/07 01:25:19;;;;;;;3.40;0.80;;;13.60;99.90;;;;;;5011636;28;20623;-74
2021/11/07 01:27:46;;;;;;;4.30;1.20;;;13.60;99.90;;;;;;5011150;28;20161;-74
2021/11/07 01:30:19;;;;;;;2.13;1.00;;;13.50;99.90;;;;;;4999875;28;20608;-74
2021/11/07 01:32:50;;;;;;;1.95;1.10;;;13.50;99.90;;;;;;5017989;28;20620;-74
2021/11/07 01:35:24;;;;;;;2.53;0.93;;;13.50;99.90;;;;;;5000482;28;20189;-74
2021/11/07 01:40:22;;;;;;;1.53;0.70;;;13.40;99.90;;;;;;5000616;28;20208;-74
2021/11/07 01:42:55;;;;;;;2.30;1.30;;;13.40;99.90;;;;;;5017849;28;21075;-74
2021/11/07 01:45:48;;;;;;;3.47;1.20;;;13.40;99.90;;;;;;5000500;28;20604;-74
2021/11/07 01:48:16;;;;;;;2.23;0.97;;;13.40;99.90;;;;;;5018096;28;20572;-74
2021/11/07 01:50:51;;;;;;;4.83;0.80;;;13.40;99.90;;;;;;5000361;28;20628;-74
2021/11/07 01:55:43;;;;;;;2.33;0.77;;;13.40;99.90;;;;;;5017697;28;20660;-74
2021/11/07 01:58:09;;;;;;;3.27;0.90;;;13.40;99.90;;;;;;5000244;28;20597;-74
2021/11/07 02:00:35;;;;;;;2.27;1.57;;;13.40;99.90;;;;;;5017941;28;20565;-74
2021/11/07 02:03:02;;;;;;;3.37;1.17;;;13.50;99.90;;;;;;5000285;28;20977;-74
2021/11/07 02:05:28;;;;;;;2.70;0.80;;;13.50;99.90;;;;;;5000131;28;20577;-74
2021/11/07 02:07:54;;;;;;;1.70;0.60;;;13.50;99.90;;;;;;5017818;28;20660;-74
2021/11/07 02:10:20;;;;;;;1.50;0.60;;;13.60;99.90;;;;;;5017863;28;20173;-74
2021/11/07 02:12:48;;;;;;;1.47;0.60;;;13.50;99.90;;;;;;5017269;28;20604;-74
2021/11/07 02:15:18;;;;;;;2.70;0.70;;;13.50;99.90;;;;;;5017885;28;20592;-74
2021/11/07 02:17:45;;;;;;;1.73;0.57;;;13.60;99.90;;;;;;5017595;28;20572;-74
2021/11/07 02:20:14;;;;;;;1.50;0.60;;;13.50;99.90;;;;;;5000431;28;20957;-74
2021/11/07 02:22:42;;;;;;;2.27;0.80;;;13.50;99.90;;;;;;5017115;28;20640;-74
2021/11/07 02:25:09;;;;;;;2.70;0.50;;;13.50;99.90;;;;;;5000404;28;20656;-75
2021/11/07 02:27:35;;;;;;;1.20;0.70;;;13.50;99.90;;;;;;5032393;28;20608;-74
2021/11/07 02:30:01;;;;;;;2.27;0.80;;;13.60;99.90;;;;;;5017878;28;21159;-75
2021/11/07 02:32:27;;;;;;;1.30;0.63;;;13.60;99.90;;;;;;4999776;28;20712;-75
2021/11/07 02:34:53;;;;;;;2.53;0.70;;;13.60;99.90;;;;;;5000028;28;20604;-75
2021/11/07 02:37:19;;;;;;;1.87;0.60;;;13.60;99.90;;;;;;5016979;28;20569;-75
2021/11/07 02:39:45;;;;;;;1.77;0.50;;;13.60;99.90;;;;;;5016542;28;20618;-75
2021/11/07 02:42:12;;;;;;;1.47;0.60;;;13.60;99.90;;;;;;5013203;28;21125;-74
2021/11/07 02:44:45;;;;;;;2.90;0.80;;;13.60;99.90;;;;;;5013821;28;20569;-75
2021/11/07 02:47:16;;;;;;;1.10;0.52;;;13.50;99.90;;;;;;5013962;28;20569;-75
2021/11/07 02:49:42;;;;;;;1.93;0.80;;;13.60;99.90;;;;;;5014155;28;20190;-76
2021/11/07 02:52:10;;;;;;;2.00;0.67;;;13.50;99.90;;;;;;5014479;28;20615;-75
2021/11/07 02:54:38;;;;;;;1.53;0.53;;;13.50;99.90;;;;;;4997410;28;21129;-75
2021/11/07 02:57:06;;;;;;;1.53;0.80;;;13.50;99.90;;;;;;4996275;28;20565;-75
2021/11/07 02:59:36;;;;;;;1.60;0.60;;;13.50;99.90;;;;;;5014030;28;20592;-76
2021/11/07 03:02:03;;;;;;;1.97;0.70;;;13.50;99.90;;;;;;5014535;28;20577;-76
2021/11/07 03:04:30;;;;;;;1.30;0.50;;;13.40;99.90;;;;;;4979740;28;20577;-76
2021/11/07 03:06:56;;;;;;;2.90;0.80;;;13.40;99.90;;;;;;5013685;28;20581;-76
2021/11/07 03:09:28;;;;;;;1.10;0.60;;;13.50;99.90;;;;;;4996526;28;20945;-76
2021/11/07 03:11:55;;;;;;;1.20;0.60;;;13.40;99.90;;;;;;5013775;28;20667;-75
2021/11/07 03:14:24;;;;;;;1.50;0.70;;;13.40;99.90;;;;;;4995992;28;20648;-75
2021/11/07 03:16:50;;;;;;;1.27;0.50;;;13.40;99.90;;;;;;4979384;28;20585;-75
2021/11/07 03:19:21;;;;;;;1.20;0.50;;;13.40;99.90;;;;;;5013788;28;20581;-76
2021/11/07 03:21:48;;;;;;;1.70;0.60;;;13.40;99.90;;;;;;5013656;28;20588;-75
2021/11/07 03:24:15;;;;;;;1.10;0.60;;;13.40;99.90;;;;;;5013464;28;20640;-75
2021/11/07 03:26:42;;;;;;;1.50;0.70;;;13.40;99.90;;;;;;5012880;28;20173;-75
2021/11/07 03:29:08;;;;;;;1.23;0.60;;;13.40;99.90;;;;;;4996264;28;20995;-75
2021/11/07 03:31:48;;;;;;;1.20;0.60;;;13.40;99.90;;;;;;4996225;28;20573;-75
2021/11/07 03:34:27;;;;;;;1.20;0.60;;;13.30;99.90;;;;;;4996016;28;20600;-75
2021/11/07 03:36:56;;;;;;;1.30;0.60;;;13.30;99.90;;;;;;5013050;28;20639;-75
2021/11/07 03:39:23;;;;;;;0.90;0.40;;;13.30;99.90;;;;;;5028844;28;20599;-75
2021/11/07 03:41:49;;;;;;;1.10;0.50;;;13.30;99.90;;;;;;5033160;28;20918;-75
2021/11/07 03:44:17;;;;;;;1.10;0.60;;;13.30;99.90;;;;;;5014891;28;21227;-75
2021/11/07 03:46:45;;;;;;;1.30;0.60;;;13.30;99.90;;;;;;5032437;28;20564;-75
2021/11/07 03:49:11;;;;;;;1.40;0.60;;;13.30;99.90;;;;;;5015170;28;20568;-74
2021/11/07 03:51:38;;;;;;;1.10;0.60;;;13.30;99.90;;;;;;5032033;28;20896;-75
2021/11/07 03:54:06;;;;;;;1.10;0.60;;;13.30;99.90;;;;;;5014975;28;20596;-75
2021/11/07 03:56:32;;;;;;;2.17;0.50;;;13.40;99.90;;;;;;5032614;28;20666;-75
2021/11/07 03:58:58;;;;;;;1.50;0.70;;;13.40;99.90;;;;;;5032660;28;20631;-75
2021/11/07 04:01:24;;;;;;;1.00;0.50;;;13.40;99.90;;;;;;5015231;28;20927;-75
2021/11/07 04:03:50;;;;;;;1.10;0.50;;;13.40;99.90;;;;;;4998340;28;20639;-75
2021/11/07 04:06:17;;;;;;;1.10;0.60;;;13.40;99.90;;;;;;5033129;28;20177;-74
2021/11/07 04:08:44;;;;;;;1.10;0.60;;;13.40;99.90;;;;;;5032774;28;20261;-73
2021/11/07 04:11:09;;;;;;;1.93;0.90;;;13.40;99.90;;;;;;5034042;28;20572;-73
2021/11/07 04:13:38;;;;;;;3.27;0.90;;;13.40;99.90;;;;;;5034239;28;20948;-73
2021/11/07 04:16:06;;;;;;;1.20;0.60;;;13.40;99.90;;;;;;5034993;28;20169;-74
2021/11/07 04:18:32;;;;;;;1.13;0.60;;;13.50;99.90;;;;;;5032477;28;20580;-75
2021/11/07 04:20:58;;;;;;;1.10;0.60;;;13.50;99.90;;;;;;5032117;28;20668;-75
2021/11/07 04:23:24;;;;;;;1.10;0.60;;;13.50;99.90;;;;;;5031860;28;20726;-74
2021/11/07 04:25:49;;;;;;;1.10;0.50;;;13.50;99.90;;;;;;4997579;28;20180;-74
2021/11/07 04:28:16;;;;;;;1.60;0.70;;;13.50;99.90;;;;;;5032335;28;20173;-74
2021/11/07 04:30:42;;;;;;;1.20;0.60;;;13.50;99.90;;;;;;5016204;28;20177;-74
2021/11/07 04:33:08;;;;;;;1.30;0.70;;;13.50;99.90;;;;;;5031970;28;20604;-75
2021/11/07 04:35:34;;;;;;;1.20;0.70;;;13.50;99.90;;;;;;5031720;28;20593;-75
2021/11/07 04:38:00;;;;;;;1.83;0.73;;;13.50;99.90;;;;;;5013626;28;20216;-75
2021/11/07 04:40:27;;;;;;;1.40;0.80;;;13.60;99.90;;;;;;4981869;28;20272;-75
2021/11/07 04:42:53;;;;;;;1.13;0.60;;;13.50;99.90;;;;;;5031752;28;20634;-76
2021/11/07 04:45:19;;;;;;;1.10;0.60;;;13.60;99.90;;;;;;5032487;28;20166;-76
2021/11/07 04:47:45;;;;;;;1.17;0.63;;;13.60;99.90;;;;;;5031293;28;20619;-76
2021/11/07 04:50:15;;;;;;;1.20;0.70;;;13.60;99.90;;;;;;5014110;28;20937;-76
2021/11/07 04:52:41;;;;;;;1.20;0.70;;;13.60;99.90;;;;;;5013743;28;21095;-76
2021/11/07 04:55:10;;;;;;;1.50;0.80;;;13.60;99.90;;;;;;5031753;28;21005;-75
2021/11/07 04:57:42;;;;;;;1.53;0.97;;;13.60;99.90;;;;;;4997291;28;20609;-75
2021/11/07 05:00:21;;;;;;;1.80;0.80;;;13.60;99.90;;;;;;5031807;28;20634;-75
2021/11/07 05:02:48;;;;;;;1.65;1.08;;;13.60;99.90;;;;;;5013480;28;20953;-75
2021/11/07 05:05:15;;;;;;;1.20;0.80;;;13.60;99.90;;;;;;5031147;28;20576;-75
2021/11/07 05:07:44;;;;;;;1.40;0.80;;;13.60;99.90;;;;;;5013514;28;20568;-74
2021/11/07 05:10:10;;;;;;;1.20;0.80;;;13.60;99.90;;;;;;5031641;28;20671;-75
2021/11/07 05:12:36;;;;;;;1.70;0.80;;;13.60;99.90;;;;;;5031385;28;20599;-75
2021/11/07 05:15:03;;;;;;;1.13;0.70;;;13.60;99.90;;;;;;5031275;28;20667;-75
2021/11/07 05:17:29;;;;;;;1.43;0.90;;;13.60;99.90;;;;;;5030823;28;20572;-75
2021/11/07 05:19:54;;;;;;;1.43;0.80;;;13.60;99.90;;;;;;5031243;28;20934;-75
2021/11/07 05:22:20;;;;;;;1.73;1.00;;;13.60;99.90;;;;;;5031963;28;20225;-76
2021/11/07 05:24:46;;;;;;;1.40;0.80;;;13.50;99.90;;;;;;5031649;28;20260;-77
2021/11/07 05:27:12;;;;;;;1.97;1.00;;;13.50;99.90;;;;;;5031223;28;20259;-78
2021/11/07 05:29:39;;;;;;;1.40;0.80;;;13.60;99.90;;;;;;5013670;28;20204;-77
2021/11/07 05:32:05;;;;;;;1.97;0.90;;;13.60;99.90;;;;;;5031470;28;21176;-78
2021/11/07 05:34:31;;;;;;;1.60;1.00;;;13.60;99.90;;;;;;5030978;28;20180;-78
2021/11/07 05:36:57;;;;;;;1.83;0.90;;;13.60;99.90;;;;;;5030674;28;20564;-78
2021/11/07 05:39:23;;;;;;;1.63;1.10;;;13.60;99.90;;;;;;5013824;28;21195;-79
2021/11/07 05:41:49;;;;;;;1.50;0.80;;;13.60;99.90;;;;;;5031119;28;20675;-78
2021/11/07 05:44:15;;;;;;;1.83;0.80;;;13.60;99.90;;;;;;5012934;28;20209;-78
2021/11/07 05:46:43;;;;;;;3.60;0.90;;;13.60;99.90;;;;;;5030567;28;21143;-78
2021/11/07 05:49:08;;;;;;;2.67;1.00;;;13.60;99.90;;;;;;5031234;28;20561;-77
2021/11/07 05:51:36;;;;;;;1.77;1.03;;;13.60;99.90;;;;;;5031181;28;20622;-78
2021/11/07 05:54:01;;;;;;;1.70;1.10;;;13.60;99.90;;;;;;5030976;28;20199;-79
2021/11/07 05:56:28;;;;;;;1.43;1.00;;;13.70;99.90;;;;;;5030516;28;20568;-78
2021/11/07 05:58:53;;;;;;;2.10;0.90;;;13.60;99.90;;;;;;5019156;28;21128;-78
2021/11/07 06:01:19;;;;;;;1.30;0.87;;;13.70;99.90;;;;;;5013346;28;20588;-78
2021/11/07 06:03:45;;;;;;;1.40;0.90;;;13.70;99.90;;;;;;5030258;28;20201;-78
2021/11/07 06:06:12;;;;;;;1.90;1.00;;;13.70;99.90;;;;;;5030681;28;20181;-78
2021/11/07 06:08:38;;;;;;;3.50;1.00;;;13.70;99.90;;;;;;5013057;28;21152;-78
2021/11/07 06:11:04;;;;;;;6.60;1.13;;;13.70;99.90;;;;;;5013467;28;20571;-78
2021/11/07 06:13:29;;;;;;;1.90;1.23;;;13.70;99.90;;;;;;5012750;28;20621;-78
2021/11/07 06:15:55;;;;;;;1.97;1.20;;;13.70;99.90;;;;;;5033146;28;20170;-78
2021/11/07 06:18:21;;;;;;;1.60;1.03;;;13.70;99.90;;;;;;5034313;28;20804;-78
2021/11/07 06:20:47;;;;;;;1.80;1.23;;;13.70;99.90;;;;;;5034750;28;20579;-78
2021/11/07 06:23:13;;;;;;;1.60;1.30;;;13.70;99.90;;;;;;5033938;28;20212;-78
2021/11/07 06:25:39;;;;;;;1.40;1.13;;;13.70;99.90;;;;;;5034623;28;20572;-79
2021/11/07 06:28:06;;;;;;;1.70;1.25;;;13.70;99.90;;;;;;5033939;28;20178;-78
2021/11/07 06:30:33;;;;;;;1.67;1.30;;;13.70;99.90;;;;;;5016912;28;20174;-78
2021/11/07 06:32:59;;;;;;;1.80;1.27;;;13.70;99.90;;;;;;5034394;28;20597;-78
2021/11/07 06:35:25;;;;;;;2.33;1.30;;;13.70;99.90;;;;;;5040706;28;20576;-77
2021/11/07 06:37:51;;;;;;;2.73;1.33;;;13.70;99.90;;;;;;5016365;28;20527;-77
2021/11/07 06:40:17;;;;;;;3.20;1.30;;;13.70;99.90;;;;;;5016720;28;20564;-78
2021/11/07 06:42:43;;;;;;;1.43;0.80;;;13.70;99.90;;;;;;5034266;28;20682;-78
2021/11/07 06:45:11;;;;;;;1.93;1.10;;;13.70;99.90;;;;;;5033825;28;20610;-78
2021/11/07 06:47:38;;;;;;;1.57;0.97;;;13.70;99.90;;;;;;5033737;28;20568;-78
2021/11/07 06:50:05;;;;;;;2.00;1.03;;;13.70;99.90;;;;;;5034204;28;20969;-77
2021/11/07 06:52:31;;;;;;;2.00;1.07;;;13.70;99.90;;;;;;5034006;28;20600;-77
2021/11/07 06:54:57;;;;;;;1.45;1.10;;;13.70;99.90;;;;;;5016248;28;20672;-78
2021/11/07 06:57:23;;;;;;;1.67;1.00;;;13.70;99.90;;;;;;5033224;28;20874;-78
2021/11/07 06:59:48;;;;;;;3.10;1.00;;;13.70;99.90;;;;;;5015876;28;20185;-77
2021/11/07 07:02:14;;;;;;;1.57;1.20;;;13.70;99.90;;;;;;5014906;28;20516;-78
2021/11/07 07:04:40;;;;;;;1.50;1.10;;;13.80;99.90;;;;;;5033493;28;20317;-78
2021/11/07 07:07:06;;;;;;;2.97;1.00;;;13.80;99.90;;;;;;5032504;28;20177;-78
2021/11/07 07:09:41;;;;;;;1.20;0.80;;;13.80;99.90;;;;;;5015929;28;20579;-77
2021/11/07 07:14:51;;;;;;;1.60;1.00;;;13.90;99.90;;;;;;5033329;28;20568;-78
2021/11/07 07:35:56;;;;;;;5.15;3.58;;;13.60;99.90;;;;;;5041911;28;20576;-78
2021/11/07 07:38:24;;;;;;;2.03;1.60;;;13.60;99.90;;;;;;5042115;28;20176;-78
2021/11/07 07:40:50;;;;;;;1.75;1.50;;;13.50;99.90;;;;;;5025788;28;20165;-77
2021/11/07 07:43:16;;;;;;;9.43;1.53;;;13.50;99.90;;;;;;5022624;28;20606;-77
2021/11/07 07:45:41;;;;;;;1.90;1.40;;;13.50;99.90;;;;;;5042629;28;21096;-77
2021/11/07 07:48:07;;;;;;;3.10;1.67;;;13.40;99.90;;;;;;5024746;28;20651;-77
2021/11/07 07:50:36;;;;;;;3.83;1.80;;;13.40;99.90;;;;;;5047635;28;20566;-77
2021/11/07 07:53:02;;;;;;;2.47;1.63;;;13.40;99.90;;;;;;5040450;28;20228;-77
2021/11/07 07:55:28;;;;;;;2.27;1.60;;;13.40;99.90;;;;;;5022880;28;20193;-78
2021/11/07 07:57:54;;;;;;;2.50;1.50;;;13.40;99.90;;;;;;5042448;28;20579;-77
2021/11/07 08:00:21;;;;;;;3.67;1.90;;;13.30;99.90;;;;;;5042174;28;20170;-77
2021/11/07 08:02:47;;;;;;;2.10;1.48;;;13.30;99.90;;;;;;5026728;28;20194;-78
2021/11/07 08:05:14;;;;;;;2.10;1.43;;;13.30;99.90;;;;;;5043072;28;20645;-78
2021/11/07 08:07:42;;;;;;;2.70;1.50;;;13.30;99.90;;;;;;5024291;28;20247;-78
2021/11/07 08:10:09;;;;;;;1.93;1.73;;;13.40;99.90;;;;;;5018361;28;20904;-78
2021/11/07 08:12:37;;;;;;;1.90;1.43;;;13.40;99.90;;;;;;5051864;28;20657;-78
2021/11/07 08:15:04;;;;;;;1.87;1.43;;;13.40;99.90;;;;;;5042887;28;20731;-78
2021/11/07 08:17:30;;;;;;;2.15;1.70;;;13.50;99.90;;;;;;5031687;28;20572;-78
2021/11/07 08:19:56;;;;;;;2.63;1.83;;;13.50;99.90;;;;;;5032590;28;20182;-78
2021/11/07 08:22:22;;;;;;;4.23;2.10;;;13.60;99.90;;;;;;5031771;28;20605;-78
2021/11/07 08:24:48;;;;;;;2.60;1.90;;;13.60;99.90;;;;;;5032200;28;20317;-78
2021/11/07 08:27:15;;;;;;;2.80;2.40;;;13.60;99.90;;;;;;5036605;28;20173;-77
2021/11/07 08:29:42;;;;;;;2.13;1.70;;;13.70;99.90;;;;;;5014694;28;20170;-78
2021/11/07 08:32:09;;;;;;;3.00;2.10;;;13.70;99.90;;;;;;5014523;28;20944;-78
2021/11/07 08:34:35;;;;;;;3.07;2.30;;;13.70;99.90;;;;;;5032091;28;20568;-78
2021/11/07 08:37:12;;;;;;;2.90;1.83;;;13.80;99.90;;;;;;5031661;28;20564;-79
2021/11/07 08:39:46;;;;;;;2.37;2.10;;;13.80;99.90;;;;;;5031023;28;20169;-78
2021/11/07 08:42:37;;;;;;;2.50;2.00;;;13.90;99.90;;;;;;5013879;28;20568;-78
2021/11/07 09:04:26;;;;;;;5.97;2.97;;;14.10;99.90;;;;;;5000414;28;20659;-76
2021/11/07 09:07:52;;;;;;;3.50;2.20;;;14.20;99.90;;;;;;5031224;28;20573;-76
2021/11/07 09:09:46;;;;;;;6.83;3.20;;;14.20;99.90;;;;;;5018034;28;20604;-76
2021/11/07 09:12:13;;;;;;;6.47;2.50;;;14.20;99.90;;;;;;5032067;28;20630;-76
2021/11/07 09:14:40;;;;;;;4.73;2.30;;;14.30;99.90;;;;;;5031242;28;20902;-76
2021/11/07 09:17:10;;;;;;;6.30;2.63;;;14.30;99.90;;;;;;5031334;28;20583;-76
2021/11/07 09:19:38;;;;;;;6.57;2.20;;;14.40;99.90;;;;;;5032153;28;20604;-76
2021/11/07 09:24:55;;;;;;;9.93;4.83;;;14.40;99.90;;;;;;4999705;28;20689;-77
2021/11/07 09:30:08;;;;;;;5.60;2.53;;;14.50;99.90;;;;;;5031324;28;20592;-78
2021/11/07 09:32:42;;;;;;;6.90;2.50;;;14.50;99.90;;;;;;5031232;28;20592;-78
2021/11/07 09:40:09;;;;;;;4.93;1.83;;;14.60;99.90;;;;;;5039070;28;20572;-77
2021/11/07 09:45:11;;;;;;;3.37;1.83;;;14.70;99.90;;;;;;5031217;28;20565;-77
2021/11/07 09:47:40;;;;;;;9.03;2.73;;;14.80;99.90;;;;;;5030432;28;20607;-77
2021/11/07 09:50:11;;;;;;;6.23;1.87;;;14.80;99.90;;;;;;5032521;28;20607;-77
2021/11/07 09:52:47;;;;;;;6.23;1.70;;;14.90;99.90;;;;;;5033898;28;21344;-77
2021/11/07 09:55:13;;;;;;;5.43;2.30;;;15.00;99.90;;;;;;5034522;28;21168;-77
2021/11/07 09:57:39;;;;;;;5.40;1.77;;;15.10;99.90;;;;;;5033930;28;20600;-77
2021/11/07 10:00:14;;;;;;;8.00;2.10;;;15.20;99.90;;;;;;5034949;28;20983;-78
2021/11/07 10:02:40;;;;;;;9.23;1.90;;;15.30;99.90;;;;;;5016592;28;20957;-77
2021/11/07 10:05:08;;;;;;;6.70;2.60;;;15.40;99.90;;;;;;5034982;28;20572;-78
2021/11/07 10:07:38;;;;;;;8.60;2.90;;;15.50;99.90;;;;;;5034020;28;20618;-78
2021/11/07 10:10:33;;;;;;;5.00;2.13;;;15.60;99.90;;;;;;5034962;28;20564;-77
2021/11/07 10:13:07;;;;;;;6.80;3.03;;;15.80;99.90;;;;;;5031881;28;20715;-77
2021/11/07 10:15:55;;;;;;;7.57;2.43;;;15.90;99.90;;;;;;5017330;28;21384;-77
2021/11/07 10:18:37;;;;;;;5.40;2.13;;;16.00;99.90;;;;;;5038198;28;20580;-77
2021/11/07 10:21:33;;;;;;;12.07;2.60;;;16.10;99.90;;;;;;5034248;28;20572;-77
2021/11/07 10:24:16;;;;;;;7.00;2.80;;;16.20;99.90;;;;;;5020445;28;20742;-77
2021/11/07 10:26:46;;;;;;;10.70;2.97;;;16.20;99.90;;;;;;5037522;28;20558;-77
2021/11/07 10:29:31;;;;;;;7.77;2.30;;;16.20;99.90;;;;;;5036421;28;20563;-77
2021/11/07 10:32:02;;;;;;;7.77;2.63;;;16.10;99.90;;;;;;5054106;28;20603;-77
2021/11/07 10:37:26;;;;;;;6.60;2.37;;;15.90;99.90;;;;;;5053664;28;20586;-77
2021/11/07 10:45:29;;;;;;;6.17;2.93;;;15.70;99.90;;;;;;5032670;28;20639;-75
2021/11/07 10:48:19;;;;;;;11.63;3.70;;;15.60;99.90;;;;;;5033622;28;21210;-75
2021/11/07 10:53:43;;;;;;;10.50;4.30;;;15.50;99.90;;;;;;5039406;28;21057;-76
2021/11/07 10:56:10;;;;;;;6.37;3.30;;;15.50;99.90;;;;;;5023783;28;20592;-76
2021/11/07 10:58:41;;;;;;;7.83;3.20;;;15.60;99.90;;;;;;5033432;28;20997;-76
2021/11/07 11:01:10;;;;;;;7.97;2.73;;;15.60;99.90;;;;;;5030017;28;20585;-75
2021/11/07 11:03:44;;;;;;;5.90;2.20;;;15.60;99.90;;;;;;5033192;28;21179;-76
2021/11/07 11:06:14;;;;;;;4.83;1.60;;;15.70;99.90;;;;;;5014985;28;20583;-75
2021/11/07 11:08:52;;;;;;;9.23;2.73;;;15.70;99.90;;;;;;5039162;28;20658;-75
2021/11/07 11:11:47;;;;;;;4.83;1.60;;;15.80;99.90;;;;;;5022086;28;20590;-75
2021/11/07 11:17:26;;;;;;;5.87;2.80;;;15.70;99.90;;;;;;5014835;28;20596;-76
2021/11/07 11:20:16;;;;;;;7.93;3.03;;;15.60;99.90;;;;;;5044479;28;20670;-76
2021/11/07 11:23:04;;;;;;;9.63;3.87;;;15.60;99.90;;;;;;5052626;28;20627;-77
2021/11/07 11:32:27;;;;;;;7.33;1.90;;;15.40;99.90;;;;;;4915564;29;20192;-77
2021/11/07 11:35:15;;;;;;;9.57;2.70;;;15.40;99.90;;;;;;4995280;28;20580;-76
2021/11/07 11:40:36;;;;;;;4.23;1.93;;;15.30;99.90;;;;;;5028540;28;20581;-77
2021/11/07 11:43:02;;;;;;;6.50;1.97;;;15.30;99.90;;;;;;5024905;28;20648;-77
2021/11/07 11:45:34;;;;;;;4.80;2.47;;;15.30;99.90;;;;;;5032874;28;20671;-77
2021/11/07 11:54:20;;;;;;;8.17;2.87;;;15.20;99.90;;;;;;5032668;28;20603;-77
2021/11/07 11:57:09;;;;;;;10.53;4.10;;;15.20;99.90;;;;;;5032376;28;20904;-77
2021/11/07 11:59:45;;;;;;;6.40;3.03;;;15.30;99.90;;;;;;5015209;28;21153;-77
2021/11/07 12:02:24;;;;;;;7.50;3.33;;;15.30;99.90;;;;;;5032540;28;20556;-76
2021/11/07 12:07:54;;;;;;;5.27;2.13;;;15.40;99.90;;;;;;5014592;28;20565;-76
2021/11/07 12:10:41;;;;;;;7.93;2.83;;;15.40;99.90;;;;;;5032445;28;20561;-77
2021/11/07 12:16:23;;;;;;;4.90;2.23;;;15.40;99.90;;;;;;5031816;28;20557;-77
2021/11/07 12:19:08;;;;;;;7.97;2.30;;;15.40;99.90;;;;;;5032257;28;20568;-77
2021/11/07 12:22:00;;;;;;;5.93;2.47;;;15.30;99.90;;;;;;5014679;28;20556;-77
2021/11/07 12:24:32;;;;;;;10.53;2.93;;;15.20;99.90;;;;;;5014282;28;20635;-77
2021/11/07 12:27:29;;;;;;;5.77;1.60;;;15.20;99.90;;;;;;5031881;28;20561;-77
2021/11/07 12:30:16;;;;;;;6.20;1.80;;;15.10;99.90;;;;;;5032068;28;20556;-77
2021/11/07 12:32:46;;;;;;;6.80;1.77;;;15.10;99.90;;;;;;5014033;28;21315;-77
2021/11/07 12:35:37;;;;;;;10.13;2.47;;;15.10;99.90;;;;;;5032048;28;20634;-77
2021/11/07 12:41:02;;;;;;;5.73;1.93;;;15.10;99.90;;;;;;5014394;28;20596;-77
2021/11/07 12:43:31;;;;;;;6.53;2.70;;;15.10;99.90;;;;;;5014176;28;20691;-77
2021/11/07 12:46:10;;;;;;;8.83;2.67;;;15.10;99.90;;;;;;5013445;28;20992;-77
2021/11/07 12:48:45;;;;;;;7.97;3.30;;;15.10;99.90;;;;;;5014444;28;20568;-77
2021/11/07 12:51:22;;;;;;;12.03;3.90;;;15.10;99.90;;;;;;4997819;28;20984;-77
2021/11/07 12:53:57;;;;;;;8.37;3.43;;;15.20;99.90;;;;;;5031682;28;20604;-77
2021/11/07 12:56:46;;;;;;;7.30;4.10;;;15.20;99.90;;;;;;4997076;28;20614;-77
2021/11/07 12:59:32;;;;;;;7.93;3.63;;;15.20;99.90;;;;;;5032164;28;20659;-77
2021/11/07 13:02:02;;;;;;;9.90;4.03;;;15.30;99.90;;;;;;5031319;28;20572;-76
2021/11/07 13:04:58;;;;;;;8.30;3.43;;;15.30;99.90;;;;;;5031293;28;20648;-77
2021/11/07 13:07:41;;;;;;;8.80;3.90;;;15.20;99.90;;;;;;5013477;28;20586;-77
2021/11/07 13:10:12;;;;;;;6.50;4.80;;;15.20;99.90;;;;;;5014080;28;20623;-77
2021/11/07 13:12:45;;;;;;;6.13;3.73;;;15.20;99.90;;;;;;4997149;28;20607;-76
2021/11/07 13:21:13;;;;;;;7.80;3.50;;;15.40;99.90;;;;;;5013926;28;20568;-77
2021/11/07 13:29:46;;;;;;;9.90;5.10;;;15.60;99.90;;;;;;5031366;28;20940;-76
2021/11/07 13:32:37;;;;;;;9.90;2.63;;;15.60;99.90;;;;;;5013723;28;20583;-77
2021/11/07 13:35:17;;;;;;;5.30;2.10;;;15.60;99.90;;;;;;5013745;28;20575;-77
2021/11/07 13:38:04;;;;;;;5.30;1.90;;;15.60;99.90;;;;;;5012652;28;20692;-77
2021/11/07 13:40:35;;;;;;;6.80;2.10;;;15.50;99.90;;;;;;5013886;28;20570;-76
2021/11/07 13:43:15;;;;;;;6.93;2.90;;;15.50;99.90;;;;;;5030950;28;20628;-76
2021/11/07 13:45:48;;;;;;;7.63;2.93;;;15.40;99.90;;;;;;5031141;28;20573;-76
2021/11/07 13:48:25;;;;;;;6.63;2.27;;;15.30;99.90;;;;;;5031119;28;20569;-78
2021/11/07 13:50:53;;;;;;;8.30;3.00;;;15.30;99.90;;;;;;5013823;28;20588;-77
2021/11/07 13:53:25;;;;;;;8.17;2.27;;;15.20;99.90;;;;;;5013160;28;20608;-76
2021/11/07 13:55:54;;;;;;;6.93;2.47;;;15.10;99.90;;;;;;5031259;28;20572;-76
2021/11/07 13:58:24;;;;;;;6.90;2.20;;;15.00;99.90;;;;;;5031904;28;20675;-77
2021/11/07 14:00:52;;;;;;;5.40;2.40;;;15.00;99.90;;;;;;5032889;28;20592;-77
2021/11/07 14:03:20;;;;;;;5.93;2.33;;;14.90;99.90;;;;;;5013345;28;21076;-77
2021/11/07 14:08:50;;;;;;;7.37;2.57;;;14.90;99.90;;;;;;5028785;28;20975;-77
2021/11/07 14:11:18;;;;;;;8.00;2.40;;;14.90;99.90;;;;;;5030841;28;20569;-78
2021/11/07 14:13:50;;;;;;;10.70;3.00;;;14.80;99.90;;;;;;5025293;28;20627;-77
2021/11/07 14:16:27;;;;;;;8.05;4.40;;;14.70;99.90;;;;;;5029805;28;20984;-77
2021/11/07 14:18:53;;;;;;;7.10;3.60;;;14.70;99.90;;;;;;5013574;28;20265;-76
2021/11/07 14:21:20;;;;;;;14.27;4.57;;;14.60;99.90;;;;;;5030769;28;20668;-77
2021/11/07 14:23:52;;;;;;;24.27;13.53;;;14.60;99.90;;;;;;5029643;28;20638;-75
2021/11/07 14:26:30;;;;;;;17.10;10.63;;;14.50;99.90;;;;;;5027530;28;20608;-77
2021/11/07 14:29:43;;;;;;;11.60;6.27;;;14.50;99.90;;;;;;5029996;28;20568;-75
2021/11/07 14:32:21;;;;;;;18.43;7.23;;;14.50;99.90;;;;;;5009022;28;20639;-78
2021/11/07 14:35:15;;;;;;;12.60;3.40;;;14.40;99.90;;;;;;5033384;28;20592;-77
2021/11/07 14:40:17;;;;;;;9.53;2.80;;;14.30;99.90;;;;;;5037027;28;20637;-76
2021/11/07 14:45:46;;;;;;;12.80;5.23;;;14.20;99.90;;;;;;5030846;28;20523;-78
2021/11/07 14:54:50;;;;;;;12.70;5.40;;;14.00;99.90;;;;;;4996518;28;20584;-73
2021/11/07 15:00:03;;;;;;;15.37;10.37;;;13.80;99.90;;;;;;5028635;28;20591;-74
2021/11/07 15:05:12;;;;;;;10.67;4.60;;;13.70;99.90;;;;;;5033384;28;20666;-74
2021/11/07 15:07:42;;;;;;;12.03;4.67;;;13.70;99.90;;;;;;5032709;28;20619;-74
2021/11/07 15:10:23;;;;;;;9.88;5.40;;;13.60;99.90;;;;;;5036153;28;20627;-73
2021/11/07 15:13:40;;;;;;;9.77;2.88;;;13.60;99.90;;;;;;5014884;28;20189;-72
2021/11/07 15:16:19;;;;;;;9.70;4.27;;;13.50;99.90;;;;;;5030476;28;20181;-73
2021/11/07 15:18:52;;;;;;;10.18;4.07;;;13.40;99.90;;;;;;5033299;28;20853;-73
2021/11/07 15:21:51;;;;;;;10.60;4.20;;;13.40;99.90;;;;;;5019318;28;20178;-73
2021/11/07 15:24:29;;;;;;;14.20;4.17;;;13.40;99.90;;;;;;5029047;28;20648;-72
2021/11/07 15:27:00;;;;;;;7.80;3.05;;;13.30;99.90;;;;;;5015471;28;20586;-73
2021/11/07 15:29:31;;;;;;;9.95;4.40;;;13.20;99.90;;;;;;5016405;28;20523;-73
2021/11/07 15:32:10;;;;;;;8.95;4.00;;;13.20;99.90;;;;;;5019073;28;20170;-73